sensor_id;sensor_type;location;lat;lon;timestamp;pressure;altitude;pressure_sealevel;temperature;humidity
74544;BME280;63016;55.030;38.710;2023-11-18T00:01:21;100826.56;;;-2.26;63.38
74544;BME280;63016;55.030;38.710;2023-11-18T00:03:47;100824.19;;;-2.30;63.05
74544;BME280;63016;55.030;38.710;2023-11-18T00:06:12;100808.44;;;-2.42;63.32
74544;BME280;63016;55.030;38.710;2023-11-18T00:08:38;100820.09;;;-2.35;63.22
74544;BME280;63016;55.030;38.710;2023-11-18T00:11:04;100807.72;;;-2.45;63.58
74544;BME280;63016;55.030;38.710;2023-11-18T00:13:30;100820.19;;;-2.38;63.38
74544;BME280;63016;55.030;38.710;2023-11-18T00:15:55;100820.97;;;-2.36;63.48
74544;BME280;63016;55.030;38.710;2023-11-18T00:18:21;100819.53;;;-2.43;63.64
74544;BME280;63016;55.030;38.710;2023-11-18T00:20:47;100818.53;;;-2.39;63.23
74544;BME280;63016;55.030;38.710;2023-11-18T00:23:13;100814.44;;;-2.43;63.38
74544;BME280;63016;55.030;38.710;2023-11-18T00:25:39;100814.50;;;-2.44;63.60
74544;BME280;63016;55.030;38.710;2023-11-18T00:28:06;100809.50;;;-2.47;63.38
74544;BME280;63016;55.030;38.710;2023-11-18T00:30:34;100817.06;;;-2.44;63.21
74544;BME280;63016;55.030;38.710;2023-11-18T00:33:00;100816.94;;;-2.41;63.77
74544;BME280;63016;55.030;38.710;2023-11-18T00:35:25;100797.88;;;-2.54;63.24
74544;BME280;63016;55.030;38.710;2023-11-18T00:37:50;100802.16;;;-2.55;63.77
74544;BME280;63016;55.030;38.710;2023-11-18T00:40:16;100820.38;;;-2.42;63.71
74544;BME280;63016;55.030;38.710;2023-11-18T00:42:44;100824.72;;;-2.44;63.45
74544;BME280;63016;55.030;38.710;2023-11-18T00:45:10;100823.00;;;-2.44;63.77
74544;BME280;63016;55.030;38.710;2023-11-18T00:47:38;100816.47;;;-2.51;63.53
74544;BME280;63016;55.030;38.710;2023-11-18T00:50:04;100821.44;;;-2.48;63.71
74544;BME280;63016;55.030;38.710;2023-11-18T00:52:33;100826.63;;;-2.49;63.69
74544;BME280;63016;55.030;38.710;2023-11-18T00:54:59;100790.84;;;-2.71;63.71
74544;BME280;63016;55.030;38.710;2023-11-18T00:57:25;100807.53;;;-2.63;63.05
74544;BME280;63016;55.030;38.710;2023-11-18T00:59:51;100812.63;;;-2.61;63.59
74544;BME280;63016;55.030;38.710;2023-11-18T01:02:16;100806.72;;;-2.63;63.41
74544;BME280;63016;55.030;38.710;2023-11-18T01:04:46;100826.88;;;-2.55;63.56
74544;BME280;63016;55.030;38.710;2023-11-18T01:07:12;100827.75;;;-2.56;63.44
74544;BME280;63016;55.030;38.710;2023-11-18T01:09:38;100797.03;;;-2.77;63.77
74544;BME280;63016;55.030;38.710;2023-11-18T01:12:05;100825.38;;;-2.61;63.12
74544;BME280;63016;55.030;38.710;2023-11-18T01:14:33;100829.72;;;-2.63;63.27
74544;BME280;63016;55.030;38.710;2023-11-18T01:16:59;100821.63;;;-2.74;63.39
74544;BME280;63016;55.030;38.710;2023-11-18T01:19:25;100825.56;;;-2.66;63.74
74544;BME280;63016;55.030;38.710;2023-11-18T01:21:50;100828.16;;;-2.67;63.33
74544;BME280;63016;55.030;38.710;2023-11-18T01:24:18;100834.16;;;-2.68;62.98
74544;BME280;63016;55.030;38.710;2023-11-18T01:26:44;100836.13;;;-2.75;63.49
74544;BME280;63016;55.030;38.710;2023-11-18T01:29:10;100842.81;;;-2.72;63.33
74544;BME280;63016;55.030;38.710;2023-11-18T01:31:36;100842.06;;;-2.74;63.07
74544;BME280;63016;55.030;38.710;2023-11-18T01:34:01;100841.25;;;-2.75;63.44
74544;BME280;63016;55.030;38.710;2023-11-18T01:36:29;100836.13;;;-2.75;62.95
74544;BME280;63016;55.030;38.710;2023-11-18T01:38:55;100841.34;;;-2.78;63.46
74544;BME280;63016;55.030;38.710;2023-11-18T01:41:22;100839.78;;;-2.82;63.11
74544;BME280;63016;55.030;38.710;2023-11-18T01:43:47;100837.56;;;-2.91;63.02
74544;BME280;63016;55.030;38.710;2023-11-18T01:46:13;100835.19;;;-2.96;63.21
74544;BME280;63016;55.030;38.710;2023-11-18T01:48:40;100818.78;;;-3.12;63.17
74544;BME280;63016;55.030;38.710;2023-11-18T01:51:07;100848.84;;;-2.97;63.73
74544;BME280;63016;55.030;38.710;2023-11-18T01:53:37;100838.06;;;-3.05;63.57
74544;BME280;63016;55.030;38.710;2023-11-18T01:56:05;100820.72;;;-3.19;62.62
74544;BME280;63016;55.030;38.710;2023-11-18T01:58:32;100827.59;;;-3.21;63.58
74544;BME280;63016;55.030;38.710;2023-11-18T02:00:58;100832.84;;;-3.25;63.41
74544;BME280;63016;55.030;38.710;2023-11-18T02:03:23;100855.44;;;-3.15;63.34
74544;BME280;63016;55.030;38.710;2023-11-18T02:05:51;100837.34;;;-3.32;63.30
74544;BME280;63016;55.030;38.710;2023-11-18T02:08:17;100841.56;;;-3.31;63.30
74544;BME280;63016;55.030;38.710;2023-11-18T02:10:48;100859.09;;;-3.22;63.50
74544;BME280;63016;55.030;38.710;2023-11-18T02:13:23;100859.28;;;-3.26;63.24
74544;BME280;63016;55.030;38.710;2023-11-18T02:15:53;100858.53;;;-3.30;63.07
74544;BME280;63016;55.030;38.710;2023-11-18T02:18:27;100846.22;;;-3.42;63.50
74544;BME280;63016;55.030;38.710;2023-11-18T02:20:55;100864.69;;;-3.36;63.29
74544;BME280;63016;55.030;38.710;2023-11-18T02:23:27;100843.03;;;-3.49;63.24
74544;BME280;63016;55.030;38.710;2023-11-18T02:25:53;100844.75;;;-3.49;63.15
74544;BME280;63016;55.030;38.710;2023-11-18T02:28:19;100862.41;;;-3.43;63.43
74544;BME280;63016;55.030;38.710;2023-11-18T02:30:45;100856.59;;;-3.47;63.03
74544;BME280;63016;55.030;38.710;2023-11-18T02:36:35;100859.22;;;-3.50;62.95
74544;BME280;63016;55.030;38.710;2023-11-18T02:39:23;100849.34;;;-3.59;63.51
74544;BME280;63016;55.030;38.710;2023-11-18T02:41:55;100867.03;;;-3.54;62.75
74544;BME280;63016;55.030;38.710;2023-11-18T02:44:23;100857.78;;;-3.57;63.46
74544;BME280;63016;55.030;38.710;2023-11-18T02:46:50;100867.19;;;-3.59;63.29
74544;BME280;63016;55.030;38.710;2023-11-18T02:49:16;100859.75;;;-3.65;63.05
74544;BME280;63016;55.030;38.710;2023-11-18T02:51:43;100864.91;;;-3.67;62.99
74544;BME280;63016;55.030;38.710;2023-11-18T02:54:13;100864.28;;;-3.73;63.00
74544;BME280;63016;55.030;38.710;2023-11-18T02:56:38;100864.19;;;-3.70;63.08
74544;BME280;63016;55.030;38.710;2023-11-18T02:59:04;100873.59;;;-3.72;63.23
74544;BME280;63016;55.030;38.710;2023-11-18T03:01:33;100864.28;;;-3.73;62.95
74544;BME280;63016;55.030;38.710;2023-11-18T03:04:02;100872.75;;;-3.73;63.40
74544;BME280;63016;55.030;38.710;2023-11-18T03:06:27;100875.44;;;-3.77;63.51
74544;BME280;63016;55.030;38.710;2023-11-18T03:08:53;100870.41;;;-3.79;63.36
74544;BME280;63016;55.030;38.710;2023-11-18T03:11:19;100872.97;;;-3.79;63.29
74544;BME280;63016;55.030;38.710;2023-11-18T03:13:45;100861.31;;;-3.86;63.49
74544;BME280;63016;55.030;38.710;2023-11-18T03:16:14;100856.09;;;-3.83;63.46
74544;BME280;63016;55.030;38.710;2023-11-18T03:18:40;100846.25;;;-3.94;63.45
74544;BME280;63016;55.030;38.710;2023-11-18T03:21:11;100856.53;;;-3.97;63.30
74544;BME280;63016;55.030;38.710;2023-11-18T03:23:38;100863.06;;;-3.88;63.09
74544;BME280;63016;55.030;38.710;2023-11-18T03:26:04;100860.88;;;-3.99;63.52
74544;BME280;63016;55.030;38.710;2023-11-18T03:28:31;100874.28;;;-3.94;63.13
74544;BME280;63016;55.030;38.710;2023-11-18T03:30:56;100867.63;;;-3.98;63.30
74544;BME280;63016;55.030;38.710;2023-11-18T03:33:22;100860.91;;;-4.00;63.05
74544;BME280;63016;55.030;38.710;2023-11-18T03:35:48;100869.28;;;-3.97;63.45
74544;BME280;63016;55.030;38.710;2023-11-18T03:38:14;100873.47;;;-3.94;63.48
74544;BME280;63016;55.030;38.710;2023-11-18T03:40:40;100868.38;;;-3.94;63.57
74544;BME280;63016;55.030;38.710;2023-11-18T03:43:07;100873.41;;;-3.93;63.49
74544;BME280;63016;55.030;38.710;2023-11-18T03:45:32;100880.97;;;-3.90;63.51
74544;BME280;63016;55.030;38.710;2023-11-18T03:47:58;100870.91;;;-3.94;63.59
74544;BME280;63016;55.030;38.710;2023-11-18T03:50:26;100869.28;;;-3.97;63.51
74544;BME280;63016;55.030;38.710;2023-11-18T03:52:51;100873.41;;;-3.93;63.10
74544;BME280;63016;55.030;38.710;2023-11-18T03:55:17;100871.88;;;-3.98;63.11
74544;BME280;63016;55.030;38.710;2023-11-18T03:57:43;100868.66;;;-4.03;62.75
74544;BME280;63016;55.030;38.710;2023-11-18T04:00:11;100870.47;;;-4.07;63.08
74544;BME280;63016;55.030;38.710;2023-11-18T04:02:37;100876.34;;;-4.05;63.38
74544;BME280;63016;55.030;38.710;2023-11-18T04:05:05;100861.34;;;-4.14;63.35
74544;BME280;63016;55.030;38.710;2023-11-18T04:07:31;100874.88;;;-4.12;63.20
74544;BME280;63016;55.030;38.710;2023-11-18T04:09:56;100876.44;;;-4.08;63.42
74544;BME280;63016;55.030;38.710;2023-11-18T04:12:22;100865.56;;;-4.13;63.34
74544;BME280;63016;55.030;38.710;2023-11-18T04:14:49;100879.09;;;-4.11;63.51
74544;BME280;63016;55.030;38.710;2023-11-18T04:17:14;100863.31;;;-4.22;63.26
74544;BME280;63016;55.030;38.710;2023-11-18T04:19:40;100882.63;;;-4.15;63.35
74544;BME280;63016;55.030;38.710;2023-11-18T04:22:06;100859.31;;;-4.31;62.75
74544;BME280;63016;55.030;38.710;2023-11-18T04:24:32;100883.59;;;-4.19;62.83
74544;BME280;63016;55.030;38.710;2023-11-18T04:26:57;100883.69;;;-4.22;62.77
74544;BME280;63016;55.030;38.710;2023-11-18T04:29:23;100888.84;;;-4.24;62.77
74544;BME280;63016;55.030;38.710;2023-11-18T04:31:48;100884.78;;;-4.29;63.29
74544;BME280;63016;55.030;38.710;2023-11-18T04:34:14;100897.53;;;-4.31;63.14
74544;BME280;63016;55.030;38.710;2023-11-18T04:36:41;100898.47;;;-4.33;63.38
74544;BME280;63016;55.030;38.710;2023-11-18T04:39:06;100883.41;;;-4.41;63.07
74544;BME280;63016;55.030;38.710;2023-11-18T04:41:32;100894.28;;;-4.34;63.07
74544;BME280;63016;55.030;38.710;2023-11-18T04:43:58;100890.09;;;-4.37;62.96
74544;BME280;63016;55.030;38.710;2023-11-18T04:46:24;100885.97;;;-4.41;63.10
74544;BME280;63016;55.030;38.710;2023-11-18T04:48:49;100891.94;;;-4.42;63.46
74544;BME280;63016;55.030;38.710;2023-11-18T04:51:14;100893.59;;;-4.41;62.86
74544;BME280;63016;55.030;38.710;2023-11-18T04:53:40;100895.25;;;-4.40;63.06
74544;BME280;63016;55.030;38.710;2023-11-18T04:56:06;100897.81;;;-4.40;63.01
74544;BME280;63016;55.030;38.710;2023-11-18T04:58:37;100899.59;;;-4.42;63.13
74544;BME280;63016;55.030;38.710;2023-11-18T05:01:04;100902.22;;;-4.45;63.12
74544;BME280;63016;55.030;38.710;2023-11-18T05:03:29;100884.81;;;-4.59;62.86
74544;BME280;63016;55.030;38.710;2023-11-18T05:05:55;100918.44;;;-4.48;62.62
74544;BME280;63016;55.030;38.710;2023-11-18T05:08:21;100914.31;;;-4.52;62.95
74544;BME280;63016;55.030;38.710;2023-11-18T05:10:48;100912.78;;;-4.57;63.01
74544;BME280;63016;55.030;38.710;2023-11-18T05:13:14;100919.47;;;-4.55;62.58
74544;BME280;63016;55.030;38.710;2023-11-18T05:15:43;100916.28;;;-4.61;62.47
74544;BME280;63016;55.030;38.710;2023-11-18T05:18:11;100902.97;;;-4.71;62.78
74544;BME280;63016;55.030;38.710;2023-11-18T05:20:39;100917.25;;;-4.66;62.75
74544;BME280;63016;55.030;38.710;2023-11-18T05:23:04;100924.09;;;-4.68;62.97
74544;BME280;63016;55.030;38.710;2023-11-18T05:25:30;100930.81;;;-4.65;63.09
74544;BME280;63016;55.030;38.710;2023-11-18T05:27:59;100909.13;;;-4.78;63.06
74544;BME280;63016;55.030;38.710;2023-11-18T05:30:25;100929.97;;;-4.66;63.17
74544;BME280;63016;55.030;38.710;2023-11-18T05:32:51;100932.56;;;-4.67;63.05
74544;BME280;63016;55.030;38.710;2023-11-18T05:35:17;100935.16;;;-4.69;63.44
74544;BME280;63016;55.030;38.710;2023-11-18T05:37:42;100912.59;;;-4.81;62.96
74544;BME280;63016;55.030;38.710;2023-11-18T05:40:09;100936.84;;;-4.68;63.22
74544;BME280;63016;55.030;38.710;2023-11-18T05:42:37;100920.97;;;-4.77;63.10
74544;BME280;63016;55.030;38.710;2023-11-18T05:45:06;100943.53;;;-4.65;63.15
74544;BME280;63016;55.030;38.710;2023-11-18T05:47:33;100940.16;;;-4.66;63.30
74544;BME280;63016;55.030;38.710;2023-11-18T05:50:00;100952.00;;;-4.65;63.32
74544;BME280;63016;55.030;38.710;2023-11-18T05:52:25;100942.75;;;-4.67;63.27
74544;BME280;63016;55.030;38.710;2023-11-18T05:54:51;100945.25;;;-4.66;63.03
74544;BME280;63016;55.030;38.710;2023-11-18T05:57:17;100946.91;;;-4.65;63.07
74544;BME280;63016;55.030;38.710;2023-11-18T05:59:43;100956.28;;;-4.65;63.03
74544;BME280;63016;55.030;38.710;2023-11-18T06:02:09;100955.41;;;-4.64;62.97
74544;BME280;63016;55.030;38.710;2023-11-18T06:04:42;100954.53;;;-4.63;62.98
74544;BME280;63016;55.030;38.710;2023-11-18T06:07:08;100947.78;;;-4.66;64.03
74544;BME280;63016;55.030;38.710;2023-11-18T06:09:34;100955.31;;;-4.61;63.72
74544;BME280;63016;55.030;38.710;2023-11-18T06:11:59;100956.06;;;-4.57;63.40
74544;BME280;63016;55.030;38.710;2023-11-18T06:14:26;100956.84;;;-4.55;63.30
74544;BME280;63016;55.030;38.710;2023-11-18T06:16:52;100956.06;;;-4.57;63.62
74544;BME280;63016;55.030;38.710;2023-11-18T06:19:17;100959.44;;;-4.57;63.80
74544;BME280;63016;55.030;38.710;2023-11-18T06:21:43;100945.00;;;-4.56;64.47
74544;BME280;63016;55.030;38.710;2023-11-18T06:24:09;100947.06;;;-4.40;64.54
74544;BME280;63016;55.030;38.710;2023-11-18T06:26:36;100958.81;;;-4.35;63.79
74544;BME280;63016;55.030;38.710;2023-11-18T06:29:03;100960.41;;;-4.31;63.42
74544;BME280;63016;55.030;38.710;2023-11-18T06:31:29;100958.69;;;-4.31;64.38
74544;BME280;63016;55.030;38.710;2023-11-18T06:33:55;100960.25;;;-4.25;64.20
74544;BME280;63016;55.030;38.710;2023-11-18T06:36:22;100950.31;;;-4.34;63.91
74544;BME280;63016;55.030;38.710;2023-11-18T06:38:52;100966.19;;;-4.26;63.62
74544;BME280;63016;55.030;38.710;2023-11-18T06:41:22;100970.38;;;-4.24;63.69
74544;BME280;63016;55.030;38.710;2023-11-18T06:43:49;100962.72;;;-4.24;63.47
74544;BME280;63016;55.030;38.710;2023-11-18T06:46:21;100970.31;;;-4.22;63.57
74544;BME280;63016;55.030;38.710;2023-11-18T06:48:51;100968.53;;;-4.19;64.08
74544;BME280;63016;55.030;38.710;2023-11-18T06:51:26;100966.03;;;-4.20;63.85
74544;BME280;63016;55.030;38.710;2023-11-18T06:53:56;100960.13;;;-4.22;63.64
74544;BME280;63016;55.030;38.710;2023-11-18T06:56:23;100953.38;;;-4.23;63.74
74544;BME280;63016;55.030;38.710;2023-11-18T06:58:48;100936.69;;;-4.33;63.93
74544;BME280;63016;55.030;38.710;2023-11-18T07:01:14;100964.25;;;-4.18;64.02
74544;BME280;63016;55.030;38.710;2023-11-18T07:03:43;100949.94;;;-4.22;63.67
74544;BME280;63016;55.030;38.710;2023-11-18T07:06:10;100928.94;;;-4.30;63.51
74544;BME280;63016;55.030;38.710;2023-11-18T07:08:36;100960.50;;;-4.06;64.05
74544;BME280;63016;55.030;38.710;2023-11-18T07:11:02;100968.88;;;-4.03;64.06
74544;BME280;63016;55.030;38.710;2023-11-18T07:13:28;100968.81;;;-4.00;64.26
74544;BME280;63016;55.030;38.710;2023-11-18T07:15:54;100964.34;;;-3.93;64.38
74544;BME280;63016;55.030;38.710;2023-11-18T07:18:22;100972.75;;;-3.90;64.07
74544;BME280;63016;55.030;38.710;2023-11-18T07:20:50;100956.56;;;-3.89;64.60
74544;BME280;63016;55.030;38.710;2023-11-18T07:23:18;100946.28;;;-3.85;64.11
74544;BME280;63016;55.030;38.710;2023-11-18T07:25:44;100962.13;;;-3.76;64.56
74544;BME280;63016;55.030;38.710;2023-11-18T07:28:11;100961.97;;;-3.71;64.48
74544;BME280;63016;55.030;38.710;2023-11-18T07:30:37;100963.44;;;-3.64;64.59
74544;BME280;63016;55.030;38.710;2023-11-18T07:33:03;100962.41;;;-3.58;64.33
74544;BME280;63016;55.030;38.710;2023-11-18T07:35:29;100974.16;;;-3.53;64.52
74544;BME280;63016;55.030;38.710;2023-11-18T07:37:55;100961.38;;;-3.53;64.91
74544;BME280;63016;55.030;38.710;2023-11-18T07:40:22;100971.03;;;-3.36;65.51
74544;BME280;63016;55.030;38.710;2023-11-18T07:42:56;100970.00;;;-3.30;64.57
74544;BME280;63016;55.030;38.710;2023-11-18T07:45:23;100966.41;;;-3.25;65.08
74544;BME280;63016;55.030;38.710;2023-11-18T07:47:50;100957.88;;;-3.24;64.79
74544;BME280;63016;55.030;38.710;2023-11-18T07:50:20;100966.88;;;-3.14;64.88
74544;BME280;63016;55.030;38.710;2023-11-18T07:52:50;100964.19;;;-3.09;65.04
74544;BME280;63016;55.030;38.710;2023-11-18T07:55:16;100975.75;;;-2.99;65.08
74544;BME280;63016;55.030;38.710;2023-11-18T07:57:42;100975.53;;;-2.93;65.25
74544;BME280;63016;55.030;38.710;2023-11-18T08:00:08;100979.47;;;-2.84;64.98
74544;BME280;63016;55.030;38.710;2023-11-18T08:02:37;100980.09;;;-2.77;65.29
74544;BME280;63016;55.030;38.710;2023-11-18T08:05:06;100982.31;;;-2.68;65.12
74544;BME280;63016;55.030;38.710;2023-11-18T08:07:39;100984.44;;;-2.56;65.46
74544;BME280;63016;55.030;38.710;2023-11-18T08:10:06;100977.47;;;-2.52;65.27
74544;BME280;63016;55.030;38.710;2023-11-18T08:12:32;100979.78;;;-2.45;65.40
74544;BME280;63016;55.030;38.710;2023-11-18T08:14:59;100987.28;;;-2.40;65.07
74544;BME280;63016;55.030;38.710;2023-11-18T08:17:25;100988.84;;;-2.36;65.09
74544;BME280;63016;55.030;38.710;2023-11-18T08:19:51;100978.31;;;-2.28;64.75
74544;BME280;63016;55.030;38.710;2023-11-18T08:22:18;100989.31;;;-2.26;64.98
74544;BME280;63016;55.030;38.710;2023-11-18T08:24:45;100975.00;;;-2.30;64.87
74544;BME280;63016;55.030;38.710;2023-11-18T08:27:10;100980.66;;;-2.22;65.30
74544;BME280;63016;55.030;38.710;2023-11-18T08:29:36;100981.97;;;-2.12;64.68
74544;BME280;63016;55.030;38.710;2023-11-18T08:32:05;100986.13;;;-2.10;65.40
74544;BME280;63016;55.030;38.710;2023-11-18T08:34:31;100954.97;;;-2.19;65.02
74544;BME280;63016;55.030;38.710;2023-11-18T08:36:58;100973.16;;;-2.05;64.74
74544;BME280;63016;55.030;38.710;2023-11-18T08:39:25;100966.38;;;-2.06;64.55
74544;BME280;63016;55.030;38.710;2023-11-18T08:41:51;100949.59;;;-2.13;64.38
74544;BME280;63016;55.030;38.710;2023-11-18T08:44:17;100970.31;;;-1.97;64.10
74544;BME280;63016;55.030;38.710;2023-11-18T08:46:43;100970.31;;;-1.97;64.72
74544;BME280;63016;55.030;38.710;2023-11-18T08:49:09;100972.91;;;-1.99;64.33
74544;BME280;63016;55.030;38.710;2023-11-18T08:51:42;100959.47;;;-2.04;64.25
74544;BME280;63016;55.030;38.710;2023-11-18T08:54:08;100957.81;;;-2.05;63.87
74544;BME280;63016;55.030;38.710;2023-11-18T08:56:53;100967.13;;;-2.02;64.02
74544;BME280;63016;55.030;38.710;2023-11-18T08:59:23;100973.16;;;-2.05;64.15
74544;BME280;63016;55.030;38.710;2023-11-18T09:01:53;100973.22;;;-2.07;64.18
74544;BME280;63016;55.030;38.710;2023-11-18T09:04:24;100975.06;;;-2.10;64.09
74544;BME280;63016;55.030;38.710;2023-11-18T09:06:53;100970.91;;;-2.13;64.23
74544;BME280;63016;55.030;38.710;2023-11-18T09:09:23;100974.97;;;-2.07;64.68
74544;BME280;63016;55.030;38.710;2023-11-18T09:11:56;100982.56;;;-2.05;65.07
74544;BME280;63016;55.030;38.710;2023-11-18T09:14:23;100960.97;;;-2.20;64.54
74544;BME280;63016;55.030;38.710;2023-11-18T09:16:50;100978.28;;;-2.05;64.86
74544;BME280;63016;55.030;38.710;2023-11-18T11:19:04;100967.41;;;-2.10;67.07
74544;BME280;63016;55.030;38.710;2023-11-18T11:21:37;100961.78;;;-1.54;68.67
74544;BME280;63016;55.030;38.710;2023-11-18T11:25:09;100968.66;;;-1.14;67.51
74544;BME280;63016;55.030;38.710;2023-11-18T11:27:10;100964.28;;;-0.91;66.56
74544;BME280;63016;55.030;38.710;2023-11-18T11:29:51;100958.78;;;-0.82;66.09
74544;BME280;63016;55.030;38.710;2023-11-18T11:32:28;100956.13;;;-0.81;65.90
74544;BME280;63016;55.030;38.710;2023-11-18T11:35:13;100955.16;;;-0.78;65.24
74544;BME280;63016;55.030;38.710;2023-11-18T11:37:44;100970.47;;;-0.76;64.71
74544;BME280;63016;55.030;38.710;2023-11-18T11:40:11;100962.78;;;-0.76;64.91
74544;BME280;63016;55.030;38.710;2023-11-18T11:42:41;100961.97;;;-0.77;65.00
74544;BME280;63016;55.030;38.710;2023-11-18T11:45:08;100959.53;;;-0.80;64.54
74544;BME280;63016;55.030;38.710;2023-11-18T11:47:49;100963.66;;;-0.78;65.59
74544;BME280;63016;55.030;38.710;2023-11-18T11:50:22;100967.00;;;-0.75;65.05
74544;BME280;63016;55.030;38.710;2023-11-18T11:53:03;100972.88;;;-0.73;64.42
74544;BME280;63016;55.030;38.710;2023-11-18T11:55:44;100962.78;;;-0.76;64.06
74544;BME280;63016;55.030;38.710;2023-11-18T11:58:30;100967.09;;;-0.77;65.02
74544;BME280;63016;55.030;38.710;2023-11-18T12:01:00;100967.13;;;-0.79;64.28
74544;BME280;63016;55.030;38.710;2023-11-18T12:03:26;100969.69;;;-0.79;64.11
74544;BME280;63016;55.030;38.710;2023-11-18T12:27:04;100961.78;;;1.56;66.78
74544;BME280;63016;55.030;38.710;2023-11-18T12:29:41;100962.75;;;1.53;65.61
74544;BME280;63016;55.030;38.710;2023-11-18T12:32:09;100959.59;;;1.33;65.01
74544;BME280;63016;55.030;38.710;2023-11-18T12:34:53;100961.88;;;1.21;64.62
74544;BME280;63016;55.030;38.710;2023-11-18T12:38:00;100962.84;;;1.03;64.61
74544;BME280;63016;55.030;38.710;2023-11-18T12:43:02;100963.84;;;0.66;64.47
74544;BME280;63016;55.030;38.710;2023-11-18T12:48:17;100956.66;;;0.38;64.51
74544;BME280;63016;55.030;38.710;2023-11-18T12:50:53;100966.31;;;0.33;64.41
74544;BME280;63016;55.030;38.710;2023-11-18T12:53:20;100954.34;;;0.14;65.04
74544;BME280;63016;55.030;38.710;2023-11-18T12:55:46;100979.25;;;0.12;64.54
74544;BME280;63016;55.030;38.710;2023-11-18T12:58:13;100983.09;;;0.04;64.36
74544;BME280;63016;55.030;38.710;2023-11-18T13:00:42;100987.53;;;0.00;64.52
74544;BME280;63016;55.030;38.710;2023-11-18T13:03:09;100985.41;;;-0.09;64.48
74544;BME280;63016;55.030;38.710;2023-11-18T13:05:36;100981.72;;;-0.22;64.12
74544;BME280;63016;55.030;38.710;2023-11-18T13:08:03;100993.03;;;-0.27;64.30
74544;BME280;63016;55.030;38.710;2023-11-18T13:10:28;100987.69;;;-0.41;64.38
74544;BME280;63016;55.030;38.710;2023-11-18T13:12:54;100997.94;;;-0.41;64.01
74544;BME280;63016;55.030;38.710;2023-11-18T13:15:20;100997.50;;;-0.50;64.89
74544;BME280;63016;55.030;38.710;2023-11-18T13:18:03;100993.28;;;-0.52;64.60
74544;BME280;63016;55.030;38.710;2023-11-18T13:20:32;101005.31;;;-0.54;64.96
74544;BME280;63016;55.030;38.710;2023-11-18T13:23:01;101013.38;;;-0.61;64.65
74544;BME280;63016;55.030;38.710;2023-11-18T13:25:34;100998.19;;;-0.66;64.23
74544;BME280;63016;55.030;38.710;2023-11-18T13:27:59;100992.44;;;-0.71;64.70
74544;BME280;63016;55.030;38.710;2023-11-18T13:30:27;100988.41;;;-0.76;64.19
74544;BME280;63016;55.030;38.710;2023-11-18T13:32:54;100990.53;;;-0.86;64.25
74544;BME280;63016;55.030;38.710;2023-11-18T13:35:21;100994.75;;;-0.85;64.27
74544;BME280;63016;55.030;38.710;2023-11-18T13:37:49;100994.31;;;-0.95;63.92
74544;BME280;63016;55.030;38.710;2023-11-18T13:40:15;100984.47;;;-1.04;63.87
74544;BME280;63016;55.030;38.710;2023-11-18T13:42:43;100995.53;;;-1.04;64.05
74544;BME280;63016;55.030;38.710;2023-11-18T13:45:13;100978.31;;;-1.20;63.87
74544;BME280;63016;55.030;38.710;2023-11-18T13:47:52;100982.84;;;-1.27;64.11
74544;BME280;63016;55.030;38.710;2023-11-18T13:50:17;100992.25;;;-1.27;64.21
74544;BME280;63016;55.030;38.710;2023-11-18T13:52:46;100995.66;;;-1.27;64.09
74544;BME280;63016;55.030;38.710;2023-11-18T13:55:15;100990.91;;;-1.36;64.00
74544;BME280;63016;55.030;38.710;2023-11-18T13:58:07;100984.38;;;-1.43;63.69
74544;BME280;63016;55.030;38.710;2023-11-18T14:00:35;100971.88;;;-1.51;63.43
74544;BME280;63016;55.030;38.710;2023-11-18T14:03:01;100977.31;;;-1.59;63.57
74544;BME280;63016;55.030;38.710;2023-11-18T14:05:33;100977.44;;;-1.62;63.87
74544;BME280;63016;55.030;38.710;2023-11-18T14:07:58;100985.00;;;-1.59;66.43
74544;BME280;63016;55.030;38.710;2023-11-18T14:10:34;100985.09;;;-0.99;69.40
74544;BME280;63016;55.030;38.710;2023-11-18T14:13:05;100988.00;;;0.08;68.68
74544;BME280;63016;55.030;38.710;2023-11-18T14:15:42;100983.56;;;0.12;64.81
74544;BME280;63016;55.030;38.710;2023-11-18T14:18:10;100966.56;;;-0.27;64.09
74544;BME280;63016;55.030;38.710;2023-11-18T14:20:36;100987.19;;;-0.30;65.87
74544;BME280;63016;55.030;38.710;2023-11-18T14:23:02;100988.81;;;-0.28;65.58
74544;BME280;63016;55.030;38.710;2023-11-18T14:25:29;100999.09;;;-0.29;63.92
74544;BME280;63016;55.030;38.710;2023-11-18T14:27:55;100992.94;;;-0.44;63.47
74544;BME280;63016;55.030;38.710;2023-11-18T14:30:20;100988.44;;;-0.58;63.32
74544;BME280;63016;55.030;38.710;2023-11-18T14:32:50;100989.88;;;-0.71;63.57
74544;BME280;63016;55.030;38.710;2023-11-18T14:35:15;100983.81;;;-0.89;63.73
74544;BME280;63016;55.030;38.710;2023-11-18T14:37:43;101004.50;;;-0.93;63.78
74544;BME280;63016;55.030;38.710;2023-11-18T14:40:15;101000.53;;;-1.00;63.15
74544;BME280;63016;55.030;38.710;2023-11-18T14:42:42;100973.44;;;-1.26;63.58
74544;BME280;63016;55.030;38.710;2023-11-18T14:45:09;100993.09;;;-1.27;63.63
74544;BME280;63016;55.030;38.710;2023-11-18T14:47:36;101003.66;;;-1.35;62.98
74544;BME280;63016;55.030;38.710;2023-11-18T14:50:01;101010.75;;;-1.41;63.80
74544;BME280;63016;55.030;38.710;2023-11-18T14:52:28;101011.06;;;-1.49;63.74
74544;BME280;63016;55.030;38.710;2023-11-18T14:54:54;101011.53;;;-1.61;63.22
74544;BME280;63016;55.030;38.710;2023-11-18T14:57:19;101021.22;;;-1.69;63.65
74544;BME280;63016;55.030;38.710;2023-11-18T14:59:45;101023.19;;;-1.76;63.44
74544;BME280;63016;55.030;38.710;2023-11-18T15:02:10;101012.56;;;-1.87;63.19
74544;BME280;63016;55.030;38.710;2023-11-18T15:04:36;101006.16;;;-1.99;63.18
74544;BME280;63016;55.030;38.710;2023-11-18T15:07:02;101022.31;;;-1.97;63.15
74544;BME280;63016;55.030;38.710;2023-11-18T15:09:27;101028.66;;;-2.07;63.59
74544;BME280;63016;55.030;38.710;2023-11-18T15:11:57;101020.50;;;-2.17;63.07
74544;BME280;63016;55.030;38.710;2023-11-18T15:14:24;101019.78;;;-2.20;63.52